sensor_id;sensor_type;location;lat;lon;timestamp;P1;durP1;ratioP1;P2;durP2;ratioP2
1410;SDS011;700;51.906;8.404;2022-08-21T00:02:29;9.57;;;7.80;;
1410;SDS011;700;51.906;8.404;2022-08-21T00:07:35;10.73;;;8.97;;
1410;SDS011;700;51.906;8.404;2022-08-21T00:12:38;8.20;;;7.40;;
1410;SDS011;700;51.906;8.404;2022-08-21T00:17:40;9.33;;;8.40;;
1410;SDS011;700;51.906;8.404;2022-08-21T00:22:41;8.50;;;7.60;;
1410;SDS011;700;51.906;8.404;2022-08-21T00:27:44;9.80;;;8.13;;
1410;SDS011;700;51.906;8.404;2022-08-21T00:32:47;8.90;;;8.00;;
1410;SDS011;700;51.906;8.404;2022-08-21T00:37:48;12.10;;;9.70;;
1410;SDS011;700;51.906;8.404;2022-08-21T00:42:54;9.83;;;8.83;;
1410;SDS011;700;51.906;8.404;2022-08-21T00:47:57;10.77;;;9.67;;
1410;SDS011;700;51.906;8.404;2022-08-21T00:52:58;10.43;;;8.93;;
1410;SDS011;700;51.906;8.404;2022-08-21T00:58:04;13.03;;;9.80;;
1410;SDS011;700;51.906;8.404;2022-08-21T01:03:11;11.30;;;9.80;;
1410;SDS011;700;51.906;8.404;2022-08-21T01:08:17;14.57;;;9.43;;
1410;SDS011;700;51.906;8.404;2022-08-21T01:13:19;12.57;;;9.83;;
1410;SDS011;700;51.906;8.404;2022-08-21T01:18:24;11.07;;;9.97;;
1410;SDS011;700;51.906;8.404;2022-08-21T01:23:26;14.70;;;8.60;;
1410;SDS011;700;51.906;8.404;2022-08-21T01:28:30;10.83;;;8.60;;
1410;SDS011;700;51.906;8.404;2022-08-21T01:33:37;8.77;;;7.27;;
1410;SDS011;700;51.906;8.404;2022-08-21T01:38:38;9.00;;;7.63;;
1410;SDS011;700;51.906;8.404;2022-08-21T01:43:42;10.17;;;8.17;;
1410;SDS011;700;51.906;8.404;2022-08-21T01:48:43;10.70;;;7.40;;
1410;SDS011;700;51.906;8.404;2022-08-21T01:53:46;9.23;;;8.37;;
1410;SDS011;700;51.906;8.404;2022-08-21T01:58:50;9.97;;;7.57;;
1410;SDS011;700;51.906;8.404;2022-08-21T02:03:52;10.00;;;8.67;;
1410;SDS011;700;51.906;8.404;2022-08-21T02:08:53;12.63;;;8.43;;
1410;SDS011;700;51.906;8.404;2022-08-21T02:13:56;9.87;;;8.80;;
1410;SDS011;700;51.906;8.404;2022-08-21T02:18:57;8.90;;;7.83;;
1410;SDS011;700;51.906;8.404;2022-08-21T02:23:57;9.23;;;7.97;;
1410;SDS011;700;51.906;8.404;2022-08-21T02:28:58;9.07;;;8.17;;
1410;SDS011;700;51.906;8.404;2022-08-21T02:34:00;12.03;;;9.23;;
1410;SDS011;700;51.906;8.404;2022-08-21T02:39:01;11.43;;;8.97;;
1410;SDS011;700;51.906;8.404;2022-08-21T02:44:04;9.80;;;8.60;;
1410;SDS011;700;51.906;8.404;2022-08-21T02:49:05;12.60;;;9.67;;
1410;SDS011;700;51.906;8.404;2022-08-21T02:54:05;9.80;;;8.60;;
1410;SDS011;700;51.906;8.404;2022-08-21T02:59:08;9.93;;;9.10;;
1410;SDS011;700;51.906;8.404;2022-08-21T03:04:09;9.27;;;8.07;;
1410;SDS011;700;51.906;8.404;2022-08-21T03:09:12;18.43;;;12.90;;
1410;SDS011;700;51.906;8.404;2022-08-21T03:14:15;10.40;;;9.40;;
1410;SDS011;700;51.906;8.404;2022-08-21T03:19:15;10.37;;;9.37;;
1410;SDS011;700;51.906;8.404;2022-08-21T03:24:16;10.87;;;9.40;;
1410;SDS011;700;51.906;8.404;2022-08-21T03:29:17;12.00;;;10.80;;
1410;SDS011;700;51.906;8.404;2022-08-21T03:34:17;13.97;;;9.73;;
1410;SDS011;700;51.906;8.404;2022-08-21T03:39:18;10.97;;;9.90;;
1410;SDS011;700;51.906;8.404;2022-08-21T03:44:21;13.27;;;11.93;;
1410;SDS011;700;51.906;8.404;2022-08-21T03:49:22;11.97;;;10.80;;
1410;SDS011;700;51.906;8.404;2022-08-21T03:54:25;13.13;;;11.90;;
1410;SDS011;700;51.906;8.404;2022-08-21T03:59:28;13.37;;;11.97;;
1410;SDS011;700;51.906;8.404;2022-08-21T04:04:31;13.27;;;12.07;;
1410;SDS011;700;51.906;8.404;2022-08-21T04:09:32;13.60;;;12.20;;
1410;SDS011;700;51.906;8.404;2022-08-21T04:14:33;13.70;;;12.40;;
1410;SDS011;700;51.906;8.404;2022-08-21T04:19:33;13.03;;;11.60;;
1410;SDS011;700;51.906;8.404;2022-08-21T04:24:34;14.20;;;12.77;;
1410;SDS011;700;51.906;8.404;2022-08-21T04:29:37;14.80;;;13.17;;
1410;SDS011;700;51.906;8.404;2022-08-21T04:34:38;15.20;;;13.80;;
1410;SDS011;700;51.906;8.404;2022-08-21T04:39:38;14.90;;;13.40;;
1410;SDS011;700;51.906;8.404;2022-08-21T04:44:39;17.63;;;14.47;;
1410;SDS011;700;51.906;8.404;2022-08-21T04:49:41;16.00;;;14.10;;
1410;SDS011;700;51.906;8.404;2022-08-21T04:54:41;16.57;;;13.60;;
1410;SDS011;700;51.906;8.404;2022-08-21T04:59:48;15.10;;;13.60;;
1410;SDS011;700;51.906;8.404;2022-08-21T05:04:51;16.03;;;14.20;;
1410;SDS011;700;51.906;8.404;2022-08-21T05:09:54;16.77;;;15.00;;
1410;SDS011;700;51.906;8.404;2022-08-21T05:14:55;14.30;;;13.00;;
1410;SDS011;700;51.906;8.404;2022-08-21T05:20:00;14.30;;;12.80;;
1410;SDS011;700;51.906;8.404;2022-08-21T05:25:04;16.37;;;14.67;;
1410;SDS011;700;51.906;8.404;2022-08-21T05:30:06;17.33;;;14.23;;
1410;SDS011;700;51.906;8.404;2022-08-21T05:35:10;15.73;;;14.23;;
1410;SDS011;700;51.906;8.404;2022-08-21T05:40:11;15.83;;;14.23;;
1410;SDS011;700;51.906;8.404;2022-08-21T05:45:12;17.03;;;15.33;;
1410;SDS011;700;51.906;8.404;2022-08-21T05:50:12;19.07;;;15.00;;
1410;SDS011;700;51.906;8.404;2022-08-21T05:55:13;18.27;;;16.37;;
1410;SDS011;700;51.906;8.404;2022-08-21T06:00:14;16.60;;;14.90;;
1410;SDS011;700;51.906;8.404;2022-08-21T06:05:17;17.10;;;15.30;;
1410;SDS011;700;51.906;8.404;2022-08-21T06:10:18;18.10;;;15.23;;
1410;SDS011;700;51.906;8.404;2022-08-21T06:15:18;18.13;;;15.77;;
1410;SDS011;700;51.906;8.404;2022-08-21T06:20:22;16.80;;;13.90;;
1410;SDS011;700;51.906;8.404;2022-08-21T06:25:23;16.07;;;14.30;;
1410;SDS011;700;51.906;8.404;2022-08-21T06:30:24;19.10;;;15.10;;
1410;SDS011;700;51.906;8.404;2022-08-21T06:35:27;14.77;;;13.20;;
1410;SDS011;700;51.906;8.404;2022-08-21T06:40:29;16.40;;;14.50;;
1410;SDS011;700;51.906;8.404;2022-08-21T06:45:30;13.93;;;12.43;;
1410;SDS011;700;51.906;8.404;2022-08-21T06:50:31;18.67;;;15.53;;
1410;SDS011;700;51.906;8.404;2022-08-21T06:55:32;14.90;;;13.40;;
1410;SDS011;700;51.906;8.404;2022-08-21T07:00:33;14.63;;;13.20;;
1410;SDS011;700;51.906;8.404;2022-08-21T07:05:35;16.10;;;13.73;;
1410;SDS011;700;51.906;8.404;2022-08-21T07:10:38;13.10;;;11.80;;
1410;SDS011;700;51.906;8.404;2022-08-21T07:15:41;16.50;;;11.00;;
1410;SDS011;700;51.906;8.404;2022-08-21T07:20:42;16.37;;;11.50;;
1410;SDS011;700;51.906;8.404;2022-08-21T07:25:43;12.67;;;10.00;;
1410;SDS011;700;51.906;8.404;2022-08-21T07:30:50;12.23;;;10.60;;
1410;SDS011;700;51.906;8.404;2022-08-21T07:35:53;12.00;;;10.43;;
1410;SDS011;700;51.906;8.404;2022-08-21T07:40:55;15.43;;;11.90;;
1410;SDS011;700;51.906;8.404;2022-08-21T07:45:58;15.60;;;11.43;;
1410;SDS011;700;51.906;8.404;2022-08-21T07:50:59;12.63;;;9.87;;
1410;SDS011;700;51.906;8.404;2022-08-21T07:56:06;16.00;;;11.00;;
1410;SDS011;700;51.906;8.404;2022-08-21T08:01:08;15.20;;;10.37;;
1410;SDS011;700;51.906;8.404;2022-08-21T08:06:09;14.47;;;10.10;;
1410;SDS011;700;51.906;8.404;2022-08-21T08:11:12;11.53;;;9.13;;
1410;SDS011;700;51.906;8.404;2022-08-21T08:16:15;11.87;;;8.17;;
1410;SDS011;700;51.906;8.404;2022-08-21T08:21:16;12.97;;;9.00;;
1410;SDS011;700;51.906;8.404;2022-08-21T08:26:18;10.90;;;7.33;;
1410;SDS011;700;51.906;8.404;2022-08-21T08:31:19;8.73;;;7.03;;
1410;SDS011;700;51.906;8.404;2022-08-21T08:36:30;11.13;;;7.43;;
1410;SDS011;700;51.906;8.404;2022-08-21T08:41:34;10.13;;;7.10;;
1410;SDS011;700;51.906;8.404;2022-08-21T08:46:41;13.30;;;6.47;;
1410;SDS011;700;51.906;8.404;2022-08-21T08:57:20;7.77;;;6.10;;
1410;SDS011;700;51.906;8.404;2022-08-21T09:02:23;9.50;;;6.00;;
1410;SDS011;700;51.906;8.404;2022-08-21T09:12:56;8.57;;;5.00;;
1410;SDS011;700;51.906;8.404;2022-08-21T09:29:01;7.03;;;3.70;;
1410;SDS011;700;51.906;8.404;2022-08-21T09:34:05;7.40;;;3.70;;
1410;SDS011;700;51.906;8.404;2022-08-21T09:39:08;9.20;;;5.10;;
1410;SDS011;700;51.906;8.404;2022-08-21T09:44:10;8.53;;;3.70;;
1410;SDS011;700;51.906;8.404;2022-08-21T09:49:13;5.93;;;3.00;;
1410;SDS011;700;51.906;8.404;2022-08-21T09:54:37;5.60;;;3.53;;
1410;SDS011;700;51.906;8.404;2022-08-21T09:59:41;4.20;;;2.80;;
1410;SDS011;700;51.906;8.404;2022-08-21T10:04:43;4.90;;;2.83;;
1410;SDS011;700;51.906;8.404;2022-08-21T10:10:00;5.40;;;3.30;;
1410;SDS011;700;51.906;8.404;2022-08-21T10:20:19;4.90;;;2.77;;
1410;SDS011;700;51.906;8.404;2022-08-21T10:25:23;4.67;;;2.17;;
1410;SDS011;700;51.906;8.404;2022-08-21T10:35:33;4.80;;;2.23;;
1410;SDS011;700;51.906;8.404;2022-08-21T10:40:40;5.27;;;2.43;;
1410;SDS011;700;51.906;8.404;2022-08-21T10:45:55;6.00;;;2.63;;
1410;SDS011;700;51.906;8.404;2022-08-21T10:56:49;5.47;;;2.53;;
1410;SDS011;700;51.906;8.404;2022-08-21T11:07:06;5.00;;;2.30;;
1410;SDS011;700;51.906;8.404;2022-08-21T11:17:37;4.73;;;2.50;;
1410;SDS011;700;51.906;8.404;2022-08-21T11:23:46;5.27;;;2.30;;
1410;SDS011;700;51.906;8.404;2022-08-21T11:39:17;4.40;;;2.57;;
1410;SDS011;700;51.906;8.404;2022-08-21T11:55:15;5.90;;;3.27;;
1410;SDS011;700;51.906;8.404;2022-08-21T12:05:09;4.90;;;2.57;;
1410;SDS011;700;51.906;8.404;2022-08-21T12:10:17;4.97;;;2.60;;
1410;SDS011;700;51.906;8.404;2022-08-21T12:20:26;4.20;;;2.37;;
1410;SDS011;700;51.906;8.404;2022-08-21T12:25:35;6.00;;;2.67;;
1410;SDS011;700;51.906;8.404;2022-08-21T12:30:37;3.97;;;1.90;;
1410;SDS011;700;51.906;8.404;2022-08-21T12:35:41;4.17;;;1.83;;
1410;SDS011;700;51.906;8.404;2022-08-21T12:40:57;3.10;;;1.70;;
1410;SDS011;700;51.906;8.404;2022-08-21T12:46:01;3.70;;;2.00;;
1410;SDS011;700;51.906;8.404;2022-08-21T12:51:09;2.10;;;1.30;;
1410;SDS011;700;51.906;8.404;2022-08-21T12:56:17;2.90;;;1.67;;
1410;SDS011;700;51.906;8.404;2022-08-21T13:01:24;3.47;;;2.10;;
1410;SDS011;700;51.906;8.404;2022-08-21T13:06:26;2.40;;;1.40;;
1410;SDS011;700;51.906;8.404;2022-08-21T13:11:29;4.00;;;2.00;;
1410;SDS011;700;51.906;8.404;2022-08-21T13:16:33;3.97;;;1.80;;
1410;SDS011;700;51.906;8.404;2022-08-21T13:21:44;4.47;;;1.73;;
1410;SDS011;700;51.906;8.404;2022-08-21T13:26:45;4.97;;;1.70;;
1410;SDS011;700;51.906;8.404;2022-08-21T13:31:53;3.17;;;1.40;;
1410;SDS011;700;51.906;8.404;2022-08-21T13:36:56;3.47;;;1.70;;
1410;SDS011;700;51.906;8.404;2022-08-21T13:41:59;2.77;;;1.60;;
1410;SDS011;700;51.906;8.404;2022-08-21T13:47:01;3.40;;;1.97;;
1410;SDS011;700;51.906;8.404;2022-08-21T13:52:03;3.50;;;1.70;;
1410;SDS011;700;51.906;8.404;2022-08-21T13:57:04;2.87;;;1.70;;
1410;SDS011;700;51.906;8.404;2022-08-21T14:02:17;5.87;;;1.77;;
1410;SDS011;700;51.906;8.404;2022-08-21T14:07:52;5.67;;;2.10;;
1410;SDS011;700;51.906;8.404;2022-08-21T14:12:49;3.73;;;1.90;;
1410;SDS011;700;51.906;8.404;2022-08-21T14:17:52;4.70;;;1.70;;
1410;SDS011;700;51.906;8.404;2022-08-21T14:22:56;5.33;;;1.87;;
1410;SDS011;700;51.906;8.404;2022-08-21T14:28:15;3.20;;;1.73;;
1410;SDS011;700;51.906;8.404;2022-08-21T14:33:27;4.03;;;1.80;;
1410;SDS011;700;51.906;8.404;2022-08-21T14:38:30;3.60;;;2.00;;
1410;SDS011;700;51.906;8.404;2022-08-21T14:43:33;3.17;;;1.30;;
1410;SDS011;700;51.906;8.404;2022-08-21T14:48:36;3.43;;;1.50;;
1410;SDS011;700;51.906;8.404;2022-08-21T14:53:40;4.10;;;1.83;;
1410;SDS011;700;51.906;8.404;2022-08-21T14:58:42;2.37;;;1.10;;
1410;SDS011;700;51.906;8.404;2022-08-21T15:03:45;2.80;;;1.17;;
1410;SDS011;700;51.906;8.404;2022-08-21T15:08:48;4.30;;;2.60;;
1410;SDS011;700;51.906;8.404;2022-08-21T15:13:58;3.63;;;1.50;;
1410;SDS011;700;51.906;8.404;2022-08-21T15:19:06;3.57;;;1.40;;
1410;SDS011;700;51.906;8.404;2022-08-21T15:24:07;3.00;;;1.17;;
1410;SDS011;700;51.906;8.404;2022-08-21T15:29:08;3.60;;;2.10;;
1410;SDS011;700;51.906;8.404;2022-08-21T15:34:11;7.77;;;2.00;;
1410;SDS011;700;51.906;8.404;2022-08-21T15:39:11;2.37;;;1.20;;
1410;SDS011;700;51.906;8.404;2022-08-21T15:44:12;3.33;;;1.73;;
1410;SDS011;700;51.906;8.404;2022-08-21T15:49:14;3.30;;;1.30;;
1410;SDS011;700;51.906;8.404;2022-08-21T15:54:14;4.17;;;1.67;;
1410;SDS011;700;51.906;8.404;2022-08-21T15:59:17;4.10;;;1.83;;
1410;SDS011;700;51.906;8.404;2022-08-21T16:04:24;3.07;;;1.60;;
1410;SDS011;700;51.906;8.404;2022-08-21T16:09:26;3.50;;;1.50;;
1410;SDS011;700;51.906;8.404;2022-08-21T16:14:28;5.17;;;1.50;;
1410;SDS011;700;51.906;8.404;2022-08-21T16:19:30;2.93;;;1.80;;
1410;SDS011;700;51.906;8.404;2022-08-21T16:24:31;2.77;;;1.33;;
1410;SDS011;700;51.906;8.404;2022-08-21T16:29:32;2.70;;;1.80;;
1410;SDS011;700;51.906;8.404;2022-08-21T16:34:38;3.60;;;1.10;;
1410;SDS011;700;51.906;8.404;2022-08-21T16:39:44;4.20;;;1.47;;
1410;SDS011;700;51.906;8.404;2022-08-21T16:44:47;3.57;;;1.30;;
1410;SDS011;700;51.906;8.404;2022-08-21T16:49:47;3.80;;;1.57;;
1410;SDS011;700;51.906;8.404;2022-08-21T16:54:50;2.73;;;1.50;;
1410;SDS011;700;51.906;8.404;2022-08-21T16:59:50;3.67;;;1.70;;
1410;SDS011;700;51.906;8.404;2022-08-21T17:04:51;2.30;;;1.30;;
1410;SDS011;700;51.906;8.404;2022-08-21T17:09:57;3.23;;;1.77;;
1410;SDS011;700;51.906;8.404;2022-08-21T17:15:03;6.00;;;2.27;;
1410;SDS011;700;51.906;8.404;2022-08-21T17:20:06;9.33;;;1.70;;
1410;SDS011;700;51.906;8.404;2022-08-21T17:25:07;2.67;;;1.37;;
1410;SDS011;700;51.906;8.404;2022-08-21T17:30:09;5.07;;;1.63;;
1410;SDS011;700;51.906;8.404;2022-08-21T17:35:11;4.07;;;1.40;;
1410;SDS011;700;51.906;8.404;2022-08-21T17:40:15;2.40;;;1.33;;
1410;SDS011;700;51.906;8.404;2022-08-21T17:45:17;2.33;;;1.30;;
1410;SDS011;700;51.906;8.404;2022-08-21T17:50:18;6.10;;;1.77;;
1410;SDS011;700;51.906;8.404;2022-08-21T17:55:21;4.27;;;1.80;;
1410;SDS011;700;51.906;8.404;2022-08-21T18:00:27;3.20;;;1.87;;
1410;SDS011;700;51.906;8.404;2022-08-21T18:05:28;4.23;;;1.77;;
1410;SDS011;700;51.906;8.404;2022-08-21T18:10:29;4.80;;;1.93;;
1410;SDS011;700;51.906;8.404;2022-08-21T18:15:33;2.93;;;1.60;;
1410;SDS011;700;51.906;8.404;2022-08-21T18:20:34;3.37;;;1.70;;
1410;SDS011;700;51.906;8.404;2022-08-21T18:25:35;3.30;;;1.40;;
1410;SDS011;700;51.906;8.404;2022-08-21T18:30:39;2.67;;;1.73;;
1410;SDS011;700;51.906;8.404;2022-08-21T18:35:42;3.90;;;1.80;;
1410;SDS011;700;51.906;8.404;2022-08-21T18:40:46;5.20;;;2.47;;
1410;SDS011;700;51.906;8.404;2022-08-21T18:45:51;3.73;;;1.70;;
1410;SDS011;700;51.906;8.404;2022-08-21T18:50:51;4.70;;;1.83;;
1410;SDS011;700;51.906;8.404;2022-08-21T18:55:55;4.13;;;2.03;;
1410;SDS011;700;51.906;8.404;2022-08-21T19:00:56;4.03;;;1.97;;
1410;SDS011;700;51.906;8.404;2022-08-21T19:05:57;4.50;;;2.40;;
1410;SDS011;700;51.906;8.404;2022-08-21T19:10:58;3.57;;;2.07;;
1410;SDS011;700;51.906;8.404;2022-08-21T19:16:01;4.93;;;2.20;;
1410;SDS011;700;51.906;8.404;2022-08-21T19:21:04;6.17;;;2.30;;
1410;SDS011;700;51.906;8.404;2022-08-21T19:26:06;5.63;;;2.40;;
1410;SDS011;700;51.906;8.404;2022-08-21T19:36:20;4.03;;;1.93;;
1410;SDS011;700;51.906;8.404;2022-08-21T19:41:22;3.90;;;2.07;;
1410;SDS011;700;51.906;8.404;2022-08-21T19:46:26;4.43;;;2.40;;
1410;SDS011;700;51.906;8.404;2022-08-21T19:51:31;5.50;;;1.90;;
1410;SDS011;700;51.906;8.404;2022-08-21T19:56:33;4.10;;;2.03;;
1410;SDS011;700;51.906;8.404;2022-08-21T20:01:34;3.60;;;1.93;;
1410;SDS011;700;51.906;8.404;2022-08-21T20:06:39;12.17;;;2.77;;
1410;SDS011;700;51.906;8.404;2022-08-21T20:11:44;6.63;;;3.37;;
1410;SDS011;700;51.906;8.404;2022-08-21T20:16:49;3.93;;;2.87;;
1410;SDS011;700;51.906;8.404;2022-08-21T20:21:53;6.53;;;3.83;;
1410;SDS011;700;51.906;8.404;2022-08-21T20:26:54;4.93;;;3.60;;
1410;SDS011;700;51.906;8.404;2022-08-21T20:31:56;5.70;;;3.70;;
1410;SDS011;700;51.906;8.404;2022-08-21T20:36:59;6.33;;;4.50;;
1410;SDS011;700;51.906;8.404;2022-08-21T20:42:00;6.30;;;4.93;;
1410;SDS011;700;51.906;8.404;2022-08-21T20:47:05;5.43;;;3.50;;
1410;SDS011;700;51.906;8.404;2022-08-21T20:52:09;4.10;;;2.70;;
1410;SDS011;700;51.906;8.404;2022-08-21T20:57:23;7.00;;;2.77;;
1410;SDS011;700;51.906;8.404;2022-08-21T21:18:39;24.30;;;13.70;;
1410;SDS011;700;51.906;8.404;2022-08-21T21:33:52;5.43;;;3.20;;
1410;SDS011;700;51.906;8.404;2022-08-21T21:39:00;5.73;;;3.00;;
1410;SDS011;700;51.906;8.404;2022-08-21T22:00:22;3.63;;;2.83;;
1410;SDS011;700;51.906;8.404;2022-08-21T22:10:56;5.73;;;2.83;;
1410;SDS011;700;51.906;8.404;2022-08-21T22:16:01;4.63;;;2.67;;
1410;SDS011;700;51.906;8.404;2022-08-21T22:21:13;6.57;;;2.60;;
1410;SDS011;700;51.906;8.404;2022-08-21T22:26:30;3.47;;;2.17;;
1410;SDS011;700;51.906;8.404;2022-08-21T22:31:38;4.20;;;2.60;;
1410;SDS011;700;51.906;8.404;2022-08-21T22:36:41;5.43;;;2.80;;
1410;SDS011;700;51.906;8.404;2022-08-21T22:41:46;4.93;;;2.30;;
1410;SDS011;700;51.906;8.404;2022-08-21T22:46:51;5.07;;;2.83;;
1410;SDS011;700;51.906;8.404;2022-08-21T22:52:32;7.60;;;2.60;;
1410;SDS011;700;51.906;8.404;2022-08-21T22:57:33;6.63;;;3.23;;
1410;SDS011;700;51.906;8.404;2022-08-21T23:02:42;8.20;;;3.10;;
1410;SDS011;700;51.906;8.404;2022-08-21T23:07:46;5.67;;;2.80;;
1410;SDS011;700;51.906;8.404;2022-08-21T23:12:52;6.03;;;2.50;;
1410;SDS011;700;51.906;8.404;2022-08-21T23:29:30;7.00;;;3.53;;
1410;SDS011;700;51.906;8.404;2022-08-21T23:39:57;4.23;;;3.03;;
1410;SDS011;700;51.906;8.404;2022-08-21T23:45:21;4.50;;;3.30;;
1410;SDS011;700;51.906;8.404;2022-08-21T23:50:27;4.20;;;2.80;;
